Time;durP1;ratioP1;P1;durP2;ratioP2;P2;SDS_P1;SDS_P2;PMS_P1;PMS_P2;Temp;Humidity;BMP_temperature;BMP_pressure;BME280_temperature;BME280_humidity;BME280_pressure;Samples;Min_cycle;Max_cycle;Signal;HPM_P1;HPM_P2
2022/06/15 00:02:30;;;;;;;;;;;;;;;;;;5124743;27;19912;-57
2022/06/15 00:05:10;;;;;;;;;;;;;;;;;;5123436;27;20267;-57
2022/06/15 00:07:50;;;;;;;;;;;;;;;;;;5122714;27;20385;-58
2022/06/15 00:10:30;;;;;;;;;;;;;;;;;;5123905;27;19922;-57
2022/06/15 00:13:09;;;;;;;;;;;;;;;;;;5124345;27;19916;-57
2022/06/15 00:15:51;;;;;;;;;;;;;;;;;;5123175;27;20458;-57
2022/06/15 00:18:31;;;;;;;;;;;;;;;;;;5126783;27;19922;-56
2022/06/15 00:21:14;;;;;;;;;;;;;;;;;;5124036;27;19926;-59
2022/06/15 00:23:52;;;;;;;;;;;;;;;;;;5124338;27;20270;-57
2022/06/15 00:26:32;;;;;;;;;;;;;;;;;;5123606;27;20399;-57
2022/06/15 00:29:12;;;;;;;;;;;;;;;;;;5124192;27;19920;-57
2022/06/15 00:31:52;;;;;;;;;;;;;;;;;;5124213;27;19916;-57
2022/06/15 00:34:31;;;;;;;;;;;;;;;;;;5103730;27;19922;-59
2022/06/15 00:37:11;;;;;;;;;;;;;;;;;;5101984;27;20434;-57
2022/06/15 00:39:51;;;;;;;;;;;;;;;;;;5114356;27;20386;-56
2022/06/15 00:42:31;;;;;;;;;;;;;;;;;;5124737;27;19918;-57
2022/06/15 00:45:12;;;;;;;;;;;;;;;;;;5124634;27;19915;-57
2022/06/15 00:47:52;;;;;;;;;;;;;;;;;;5124150;27;20405;-58
2022/06/15 00:50:32;;;;;;;;;;;;;;;;;;5089504;27;19950;-56
2022/06/15 00:53:12;;;;;;;;;;;;;;;;;;5124579;27;19915;-56
2022/06/15 00:55:52;;;;;;;;;;;;;;;;;;5123350;27;19912;-59
2022/06/15 00:58:36;;;;;;;;;;;;;;;;;;5123799;27;19912;-58
2022/06/15 01:01:16;;;;;;;;;;;;;;;;;;5143172;27;19918;-56
2022/06/15 01:03:59;;;;;;;;;;;;;;;;;;5162954;27;20379;-56
2022/06/15 01:06:39;;;;;;;;;;;;;;;;;;5103283;27;19912;-58
2022/06/15 01:09:19;;;;;;;;;;;;;;;;;;5088562;27;19926;-57
2022/06/15 01:11:58;;;;;;;;;;;;;;;;;;5124154;27;19912;-57
2022/06/15 01:14:38;;;;;;;;;;;;;;;;;;5124429;27;19911;-58
2022/06/15 01:17:18;;;;;;;;;;;;;;;;;;5114387;27;20107;-57
2022/06/15 01:19:58;;;;;;;;;;;;;;;;;;5123232;27;19915;-57
2022/06/15 01:22:38;;;;;;;;;;;;;;;;;;5124980;27;20221;-56
2022/06/15 01:25:18;;;;;;;;;;;;;;;;;;5102917;27;19961;-56
2022/06/15 01:27:57;;;;;;;;;;;;;;;;;;5124508;27;19953;-58
2022/06/15 01:30:37;;;;;;;;;;;;;;;;;;5124155;27;19915;-56
2022/06/15 01:33:17;;;;;;;;;;;;;;;;;;5124280;27;19911;-58
2022/06/15 01:35:57;;;;;;;;;;;;;;;;;;5123164;27;19916;-57
2022/06/15 01:38:37;;;;;;;;;;;;;;;;;;5103020;27;19973;-56
2022/06/15 01:41:17;;;;;;;;;;;;;;;;;;5144736;27;19912;-56
2022/06/15 01:43:57;;;;;;;;;;;;;;;;;;5083389;28;19918;-58
2022/06/15 01:46:36;;;;;;;;;;;;;;;;;;5123973;27;20369;-56
2022/06/15 01:49:16;;;;;;;;;;;;;;;;;;5144198;27;19911;-58
2022/06/15 01:51:59;;;;;;;;;;;;;;;;;;5124402;27;19912;-56
2022/06/15 01:54:39;;;;;;;;;;;;;;;;;;5104365;27;19927;-56
2022/06/15 01:57:25;;;;;;;;;;;;;;;;;;5123398;27;19916;-57
2022/06/15 02:00:04;;;;;;;;;;;;;;;;;;5113232;27;20373;-55
2022/06/15 02:02:43;;;;;;;;;;;;;;;;;;5124373;27;20288;-56
2022/06/15 02:05:23;;;;;;;;;;;;;;;;;;5123814;27;19915;-58
2022/06/15 02:08:03;;;;;;;;;;;;;;;;;;5122281;27;20240;-59
2022/06/15 02:10:43;;;;;;;;;;;;;;;;;;5124438;27;20079;-57
2022/06/15 02:13:23;;;;;;;;;;;;;;;;;;5124549;27;19945;-59
2022/06/15 02:16:02;;;;;;;;;;;;;;;;;;5103216;27;20079;-55
2022/06/15 02:18:46;;;;;;;;;;;;;;;;;;5103725;27;20606;-58
2022/06/15 02:21:25;;;;;;;;;;;;;;;;;;5103457;27;19912;-60
2022/06/15 02:24:05;;;;;;;;;;;;;;;;;;5103662;27;19926;-58
2022/06/15 02:26:45;;;;;;;;;;;;;;;;;;5123507;27;20209;-59
2022/06/15 02:29:25;;;;;;;;;;;;;;;;;;5118796;27;19926;-57
2022/06/15 02:32:05;;;;;;;;;;;;;;;;;;5124031;27;20328;-57
2022/06/15 02:34:44;;;;;;;;;;;;;;;;;;5103648;27;19926;-59
2022/06/15 02:37:24;;;;;;;;;;;;;;;;;;5123581;27;19915;-55
2022/06/15 02:40:04;;;;;;;;;;;;;;;;;;5123967;27;19912;-57
2022/06/15 02:42:47;;;;;;;;;;;;;;;;;;5124045;27;19912;-55
2022/06/15 02:45:29;;;;;;;;;;;;;;;;;;5123744;27;19912;-56
2022/06/15 02:48:08;;;;;;;;;;;;;;;;;;5103639;27;19912;-59
2022/06/15 02:50:48;;;;;;;;;;;;;;;;;;5123689;27;19912;-60
2022/06/15 02:53:28;;;;;;;;;;;;;;;;;;5124722;27;19919;-57
2022/06/15 02:56:10;;;;;;;;;;;;;;;;;;5124037;27;19916;-57
2022/06/15 02:58:49;;;;;;;;;;;;;;;;;;5123778;27;19911;-56
2022/06/15 03:01:29;;;;;;;;;;;;;;;;;;5124223;27;19911;-56
2022/06/15 03:04:09;;;;;;;;;;;;;;;;;;5103971;27;19922;-57
2022/06/15 03:06:49;;;;;;;;;;;;;;;;;;5123703;27;19922;-60
2022/06/15 03:09:30;;;;;;;;;;;;;;;;;;5120362;27;19925;-58
2022/06/15 03:12:11;;;;;;;;;;;;;;;;;;5124158;27;19911;-56
2022/06/15 03:14:50;;;;;;;;;;;;;;;;;;5123629;27;19915;-55
2022/06/15 03:17:31;;;;;;;;;;;;;;;;;;5123201;27;19920;-60
2022/06/15 03:20:21;;;;;;;;;;;;;;;;;;5124425;27;19912;-56
2022/06/15 03:23:00;;;;;;;;;;;;;;;;;;5123996;27;19911;-58
2022/06/15 03:25:40;;;;;;;;;;;;;;;;;;5103470;27;20385;-55
2022/06/15 03:28:20;;;;;;;;;;;;;;;;;;5104261;27;19926;-55
2022/06/15 03:31:00;;;;;;;;;;;;;;;;;;5123962;27;19911;-58
2022/06/15 03:33:40;;;;;;;;;;;;;;;;;;5125090;27;19911;-60
2022/06/15 03:36:23;;;;;;;;;;;;;;;;;;5123574;27;19925;-56
2022/06/15 03:39:03;;;;;;;;;;;;;;;;;;5121864;27;19912;-55
2022/06/15 03:41:49;;;;;;;;;;;;;;;;;;5123955;27;19916;-59
2022/06/15 03:44:29;;;;;;;;;;;;;;;;;;5083945;28;19916;-59
2022/06/15 03:47:10;;;;;;;;;;;;;;;;;;5122893;27;19926;-59
2022/06/15 03:49:52;;;;;;;;;;;;;;;;;;5114321;27;19950;-57
2022/06/15 03:52:31;;;;;;;;;;;;;;;;;;5124493;27;20286;-58
2022/06/15 03:55:11;;;;;;;;;;;;;;;;;;5123177;27;19920;-58
2022/06/15 03:57:51;;;;;;;;;;;;;;;;;;5083184;28;19918;-58
2022/06/15 04:01:57;;;;;;;;;;;10.00;99.90;;;;;;5123931;27;20263;-51
2022/06/15 04:04:40;;;;;;;;;;;10.00;99.90;;;;;;5124473;27;20517;-51
2022/06/15 04:10:19;;;;;;;;;;;10.10;99.90;;;;;;5104404;27;19912;-52
2022/06/15 04:12:59;;;;;;;;;;;10.40;99.90;;;;;;5125362;27;19912;-52
2022/06/15 04:15:39;;;;;;;;;;;11.60;99.90;;;;;;5103176;27;19962;-52
2022/06/15 04:18:21;;;;;;;;;;;13.40;99.90;;;;;;5124507;27;19912;-51
2022/06/15 04:21:03;;;;;;;;;;;15.10;99.90;;;;;;5124405;27;20373;-52
2022/06/15 04:23:44;;;;;;;;;;;16.60;99.90;;;;;;5124766;27;19918;-53
2022/06/15 04:26:27;;;;;;;;;;;17.60;99.90;;;;;;5124455;27;20428;-54
2022/06/15 04:29:12;;;;;;;;;;;18.50;99.90;;;;;;5119624;27;19912;-52
2022/06/15 04:31:52;;;;;;;;;;;19.20;99.90;;;;;;5103721;27;19930;-53
2022/06/15 04:34:33;;;;;;;;;;;19.80;99.90;;;;;;5124575;27;19915;-52
2022/06/15 04:37:19;;;;;;;;;;;20.20;91.60;;;;;;5122624;27;19922;-52
2022/06/15 04:40:03;;;;;;;;;;;20.40;87.90;;;;;;5091854;27;20397;-53
2022/06/15 04:42:43;;;;;;;;;;;20.70;74.20;;;;;;5123797;27;20383;-52
2022/06/15 04:45:22;;;;;;;;;;;21.10;66.30;;;;;;5103076;27;19957;-52
2022/06/15 04:48:15;;;;;;;;;;;21.40;65.50;;;;;;5124076;27;19911;-53
2022/06/15 04:50:55;;;;;;;;;;;21.60;63.60;;;;;;5123139;27;19912;-52
2022/06/15 04:53:41;;;;;;;;;;;21.60;63.20;;;;;;5124918;27;20184;-53
2022/06/15 04:56:21;;;;;;;;;;;21.80;61.80;;;;;;5123605;27;19922;-52
2022/06/15 04:59:02;;;;;;;;;;;22.10;61.90;;;;;;5124748;27;19923;-53
2022/06/15 05:01:44;;;;;;;;;;;22.30;58.30;;;;;;5124525;27;19919;-53
2022/06/15 05:04:25;;;;;;;;;;;22.40;57.00;;;;;;5124564;27;19915;-52
2022/06/15 05:07:07;;;;;;;;;;;22.30;57.20;;;;;;5123175;27;20081;-53
2022/06/15 05:09:54;;;;;;;;;;;22.40;57.20;;;;;;5124011;27;19957;-53
2022/06/15 05:12:34;;;;;;;;;;;22.40;54.10;;;;;;5124783;27;19911;-55
2022/06/15 05:15:15;;;;;;;;;;;22.30;54.20;;;;;;5124378;27;20145;-53
2022/06/15 05:17:55;;;;;;;;;;;22.40;55.30;;;;;;5124024;27;19926;-53
2022/06/15 05:20:38;;;;;;;;;;;22.70;54.20;;;;;;5125133;27;19912;-54
2022/06/15 05:23:18;;;;;;;;;;;22.90;53.50;;;;;;5104305;27;19926;-53
2022/06/15 05:26:17;;;;;;;;;;;22.80;53.10;;;;;;5145251;27;19912;-53
2022/06/15 05:28:59;;;;;;;;;;;22.50;56.00;;;;;;5099992;27;19946;-53
2022/06/15 05:31:38;;;;;;;;;;;22.30;53.80;;;;;;5103482;27;19916;-53
2022/06/15 05:34:18;;;;;;;;;;;22.40;54.40;;;;;;5123159;27;20388;-52
2022/06/15 05:36:58;;;;;;;;;;;22.30;52.50;;;;;;5123379;27;19912;-54
2022/06/15 05:39:38;;;;;;;;;;;22.00;54.50;;;;;;5096312;27;19928;-55
2022/06/15 05:42:28;;;;;;;;;;;21.00;55.40;;;;;;5124795;27;19916;-53
2022/06/15 05:45:14;;;;;;;;;;;19.80;64.30;;;;;;5122700;27;20184;-53
2022/06/15 05:47:57;;;;;;;;;;;19.10;91.60;;;;;;5123406;27;19916;-53
2022/06/15 05:50:48;;;;;;;;;;;18.70;98.30;;;;;;5103581;27;19920;-53
2022/06/15 05:53:32;;;;;;;;;;;18.50;99.90;;;;;;5104676;27;19924;-52
2022/06/15 05:56:12;;;;;;;;;;;18.50;99.90;;;;;;5123831;27;19926;-53
2022/06/15 05:58:52;;;;;;;;;;;18.50;99.90;;;;;;5082670;28;19916;-53
2022/06/15 06:01:33;;;;;;;;;;;18.50;99.90;;;;;;5103814;27;19918;-54
2022/06/15 06:04:14;;;;;;;;;;;18.50;99.90;;;;;;5104256;27;19973;-53
2022/06/15 06:06:55;;;;;;;;;;;18.40;99.90;;;;;;5123815;27;19911;-53
2022/06/15 06:09:34;;;;;;;;;;;18.30;99.90;;;;;;5117736;27;19912;-53
2022/06/15 06:12:15;;;;;;;;;;;18.20;99.90;;;;;;5124849;27;19912;-53
2022/06/15 06:14:54;;;;;;;;;;;18.30;99.90;;;;;;5124899;27;19941;-53
2022/06/15 06:17:34;;;;;;;;;;;18.40;99.90;;;;;;5104061;27;19953;-53
2022/06/15 06:20:14;;;;;;;;;;;18.40;99.90;;;;;;5111561;27;19918;-53
2022/06/15 06:22:54;;;;;;;;;;;18.60;99.90;;;;;;5124306;27;19930;-53
2022/06/15 06:25:33;;;;;;;;;;;18.80;99.90;;;;;;5124080;27;19912;-53
2022/06/15 06:28:20;;;;;;;;;;;18.70;99.90;;;;;;5122540;27;19912;-54
2022/06/15 06:31:03;;;;;;;;;;;18.90;99.90;;;;;;5124020;27;19912;-53
2022/06/15 06:33:43;;;;;;;;;;;19.00;99.90;;;;;;5103821;27;19918;-53
2022/06/15 06:36:24;;;;;;;;;;;19.10;99.90;;;;;;5123871;27;19915;-54
2022/06/15 06:39:13;;;;;;;;;;;19.20;99.90;;;;;;5100495;27;19917;-53
2022/06/15 06:41:53;;;;;;;;;;;19.20;99.90;;;;;;5124280;27;19916;-53
2022/06/15 06:44:33;;;;;;;;;;;19.30;99.90;;;;;;5125138;27;19912;-52
2022/06/15 06:47:13;;;;;;;;;;;19.30;99.90;;;;;;5123502;27;20381;-53
2022/06/15 06:49:54;;;;;;;;;;;19.30;99.90;;;;;;5106616;27;19920;-53
2022/06/15 06:52:34;;;;;;;;;;;19.30;99.90;;;;;;5124533;27;20293;-53
2022/06/15 06:55:14;;;;;;;;;;;19.40;99.90;;;;;;5123398;27;19912;-53
2022/06/15 06:57:56;;;;;;;;;;;19.50;99.90;;;;;;5124411;27;20180;-52
2022/06/15 07:00:37;;;;;;;;;;;19.60;99.90;;;;;;5124030;27;19912;-53
2022/06/15 07:03:18;;;;;;;;;;;19.80;99.90;;;;;;5104415;27;20339;-53
2022/06/15 07:06:01;;;;;;;;;;;20.00;99.90;;;;;;5122546;27;20316;-54
2022/06/15 07:08:41;;;;;;;;;;;20.00;99.90;;;;;;5123594;27;19918;-53
2022/06/15 07:11:22;;;;;;;;;;;19.90;98.40;;;;;;5123206;27;19922;-53
2022/06/15 07:14:03;;;;;;;;;;;19.90;99.90;;;;;;5123700;27;19912;-53
2022/06/15 07:16:44;;;;;;;;;;;20.00;99.90;;;;;;5122955;27;19915;-53
2022/06/15 07:19:23;;;;;;;;;;;20.10;99.90;;;;;;5118369;27;19930;-53
2022/06/15 07:22:04;;;;;;;;;;;20.20;99.90;;;;;;5120096;27;19931;-52
2022/06/15 07:24:43;;;;;;;;;;;20.30;99.20;;;;;;5121684;27;19980;-53
2022/06/15 07:27:23;;;;;;;;;;;20.50;97.40;;;;;;5122374;27;20323;-52
2022/06/15 07:30:04;;;;;;;;;;;20.40;95.30;;;;;;5112332;27;19920;-53
2022/06/15 07:32:44;;;;;;;;;;;20.50;95.40;;;;;;5102942;27;19912;-53
2022/06/15 07:35:25;;;;;;;;;;;20.60;96.80;;;;;;5122830;27;20292;-53
2022/06/15 07:38:05;;;;;;;;;;;20.90;94.30;;;;;;5102261;27;19912;-53
2022/06/15 07:40:45;;;;;;;;;;;21.10;96.50;;;;;;5106244;27;19912;-52
2022/06/15 07:43:25;;;;;;;;;;;21.40;90.20;;;;;;5120723;27;20267;-52
2022/06/15 07:46:05;;;;;;;;;;;21.60;92.70;;;;;;5120733;27;19912;-53
2022/06/15 07:51:44;;;;;;;;;;;21.90;71.30;;;;;;5123370;27;19918;-54
2022/06/15 07:54:25;;;;;;;;;;;22.00;73.20;;;;;;5123842;27;19915;-53
2022/06/15 07:57:06;;;;;;;;;;;22.10;72.40;;;;;;5103239;27;20126;-53
2022/06/15 07:59:46;;;;;;;;;;;22.30;70.30;;;;;;5095256;27;19927;-53
2022/06/15 08:02:26;;;;;;;;;;;22.30;70.40;;;;;;5125163;27;20079;-54
2022/06/15 08:05:07;;;;;;;;;;;22.40;73.00;;;;;;5123000;27;19923;-54
2022/06/15 08:07:49;;;;;;;;;;;22.30;66.00;;;;;;5124635;27;19918;-53
2022/06/15 08:10:33;;;;;;;;;;;22.30;66.60;;;;;;5102385;27;19912;-54
2022/06/15 08:13:14;;;;;;;;;;;22.40;68.30;;;;;;5084288;28;19913;-53
2022/06/15 08:15:53;;;;;;;;;;;22.50;61.60;;;;;;5122330;27;19915;-53
2022/06/15 08:18:35;;;;;;;;;;;22.60;66.80;;;;;;5123134;27;19912;-53
2022/06/15 08:21:18;;;;;;;;;;;22.60;61.50;;;;;;5090923;27;19912;-53
2022/06/15 08:23:58;;;;;;;;;;;22.70;59.40;;;;;;5123516;27;19912;-53
2022/06/15 08:26:41;;;;;;;;;;;22.70;58.40;;;;;;5124495;27;19912;-53
2022/06/15 08:29:21;;;;;;;;;;;22.80;55.00;;;;;;5143620;27;19926;-53
2022/06/15 08:32:01;;;;;;;;;;;23.00;55.20;;;;;;5124614;27;20207;-54
2022/06/15 08:34:44;;;;;;;;;;;23.10;53.90;;;;;;5104587;27;20443;-54
2022/06/15 08:37:23;;;;;;;;;;;23.20;51.30;;;;;;5103785;27;19954;-53
2022/06/15 08:40:04;;;;;;;;;;;23.20;51.80;;;;;;5093144;27;20435;-53
2022/06/15 08:42:52;;;;;;;;;;;23.40;50.40;;;;;;5124744;27;19916;-53
2022/06/15 08:45:36;;;;;;;;;;;23.40;51.80;;;;;;5103706;27;19912;-54
2022/06/15 08:48:20;;;;;;;;;;;23.50;53.30;;;;;;5124562;27;19912;-53
2022/06/15 08:51:03;;;;;;;;;;;23.50;50.70;;;;;;5123996;27;19916;-53
2022/06/15 08:53:46;;;;;;;;;;;23.50;50.60;;;;;;5104492;27;19946;-53
2022/06/15 08:56:27;;;;;;;;;;;23.40;49.50;;;;;;5124373;27;19912;-53
2022/06/15 08:59:10;;;;;;;;;;;23.40;48.30;;;;;;5100841;27;19916;-53
2022/06/15 09:01:54;;;;;;;;;;;23.50;52.10;;;;;;5103696;27;19912;-53
2022/06/15 09:04:37;;;;;;;;;;;23.50;49.50;;;;;;5124758;27;20378;-53
2022/06/15 09:07:24;;;;;;;;;;;23.60;49.30;;;;;;5123124;27;20274;-54
2022/06/15 09:10:14;;;;;;;;;;;23.70;48.00;;;;;;5103421;27;20082;-53
2022/06/15 09:13:01;;;;;;;;;;;23.70;48.90;;;;;;5103906;27;20467;-52
2022/06/15 09:15:48;;;;;;;;;;;23.90;46.40;;;;;;5123548;27;19915;-53
2022/06/15 09:18:32;;;;;;;;;;;24.00;46.30;;;;;;5124215;27;19912;-53
2022/06/15 09:21:15;;;;;;;;;;;24.30;45.50;;;;;;5145656;27;19924;-53
2022/06/15 09:23:58;;;;;;;;;;;24.50;43.70;;;;;;5124576;27;19912;-54
2022/06/15 09:26:41;;;;;;;;;;;24.50;44.60;;;;;;5103236;27;19912;-54
2022/06/15 09:29:24;;;;;;;;;;;24.40;41.60;;;;;;5118049;27;19912;-53
2022/06/15 09:32:07;;;;;;;;;;;24.30;44.80;;;;;;5104154;27;20198;-53
2022/06/15 09:34:48;;;;;;;;;;;24.50;45.20;;;;;;5104013;27;19926;-55
2022/06/15 09:37:31;;;;;;;;;;;24.70;44.60;;;;;;5124039;27;19912;-53
2022/06/15 09:40:11;;;;;;;;;;;24.90;42.90;;;;;;5145044;27;20177;-54
2022/06/15 09:42:57;;;;;;;;;;;25.00;38.10;;;;;;5124624;27;20254;-54
2022/06/15 09:45:42;;;;;;;;;;;24.90;37.30;;;;;;5124201;27;20031;-55
2022/06/15 09:48:26;;;;;;;;;;;24.90;39.20;;;;;;5104324;27;19916;-53
2022/06/15 09:51:10;;;;;;;;;;;25.00;39.10;;;;;;5124389;27;20349;-54
2022/06/15 09:53:55;;;;;;;;;;;25.30;38.10;;;;;;5125245;27;19912;-53
2022/06/15 09:56:35;;;;;;;;;;;25.40;41.40;;;;;;5124039;27;20076;-53
2022/06/15 09:59:17;;;;;;;;;;;25.60;37.40;;;;;;5100061;27;20321;-54
2022/06/15 10:01:57;;;;;;;;;;;25.60;36.50;;;;;;5103671;27;19912;-54
2022/06/15 10:04:38;;;;;;;;;;;25.60;37.50;;;;;;5104410;27;19926;-54
2022/06/15 10:07:25;;;;;;;;;;;25.70;36.10;;;;;;5143985;27;19922;-53
2022/06/15 10:10:16;;;;;;;;;;;25.70;37.90;;;;;;5112909;27;19912;-53
2022/06/15 10:12:57;;;;;;;;;;;25.70;38.00;;;;;;5124265;27;20393;-54
2022/06/15 10:15:49;;;;;;;;;;;25.80;38.50;;;;;;5124028;27;19926;-54
2022/06/15 10:18:35;;;;;;;;;;;25.90;38.20;;;;;;5083674;28;19912;-53
2022/06/15 10:21:20;;;;;;;;;;;25.90;35.90;;;;;;5124519;27;20391;-53
2022/06/15 10:24:07;;;;;;;;;;;26.00;36.00;;;;;;5083578;28;19923;-53
2022/06/15 10:26:49;;;;;;;;;;;26.00;35.60;;;;;;5103122;27;19946;-54
2022/06/15 10:29:31;;;;;;;;;;;26.10;34.80;;;;;;5096375;27;20173;-54
2022/06/15 10:32:19;;;;;;;;;;;26.20;36.20;;;;;;5124583;27;19915;-54
2022/06/15 10:35:08;;;;;;;;;;;26.30;37.40;;;;;;5124411;27;20218;-54
2022/06/15 10:37:51;;;;;;;;;;;26.40;34.50;;;;;;5124476;27;19916;-53
2022/06/15 10:40:32;;;;;;;;;;;26.40;32.70;;;;;;5124183;27;19912;-54
2022/06/15 10:43:21;;;;;;;;;;;26.30;32.80;;;;;;5124355;27;19919;-53
2022/06/15 10:46:02;;;;;;;;;;;26.30;34.60;;;;;;5102953;27;19912;-54
2022/06/15 10:48:45;;;;;;;;;;;26.40;33.30;;;;;;5124284;27;19965;-54
2022/06/15 10:51:32;;;;;;;;;;;26.30;35.80;;;;;;5123993;27;19912;-53
2022/06/15 10:54:32;;;;;;;;;;;26.30;35.70;;;;;;5124527;27;19920;-54
2022/06/15 11:03:22;;;;;;;;;;;26.30;32.50;;;;;;5104042;27;19912;-53
2022/06/15 11:06:02;;;;;;;;;;;26.50;35.00;;;;;;5123439;27;19912;-53
2022/06/15 11:08:45;;;;;;;;;;;26.80;33.10;;;;;;5124568;27;19945;-55
2022/06/15 11:11:26;;;;;;;;;;;26.80;33.80;;;;;;5124384;27;19918;-54
2022/06/15 11:14:08;;;;;;;;;;;26.90;34.00;;;;;;5104971;27;19916;-54
2022/06/15 11:19:53;;;;;;;;;;;27.10;34.90;;;;;;5074960;28;19912;-54
2022/06/15 11:22:34;;;;;;;;;;;27.30;33.40;;;;;;5124501;27;19918;-53
2022/06/15 11:25:17;;;;;;;;;;;27.30;32.10;;;;;;5123625;27;20301;-54
2022/06/15 11:28:00;;;;;;;;;;;27.40;29.80;;;;;;5122336;27;20328;-54
2022/06/15 11:30:44;;;;;;;;;;;27.40;28.10;;;;;;5123826;27;19912;-54
2022/06/15 11:33:26;;;;;;;;;;;27.40;31.40;;;;;;5104409;27;19912;-53
2022/06/15 11:36:15;;;;;;;;;;;27.40;29.60;;;;;;5123452;27;20313;-54
2022/06/15 11:38:57;;;;;;;;;;;27.40;27.60;;;;;;5123252;27;19915;-54
2022/06/15 11:41:44;;;;;;;;;;;27.50;26.40;;;;;;5124249;27;19915;-54
2022/06/15 11:44:25;;;;;;;;;;;27.60;28.70;;;;;;5124705;27;19912;-54
2022/06/15 11:47:09;;;;;;;;;;;27.80;27.60;;;;;;5103051;27;19912;-54
2022/06/15 11:49:55;;;;;;;;;;;27.80;28.00;;;;;;5074725;28;19912;-53
2022/06/15 11:52:42;;;;;;;;;;;27.70;29.80;;;;;;5083628;28;20695;-54
2022/06/15 11:55:31;;;;;;;;;;;27.80;29.20;;;;;;5103535;27;19916;-54
2022/06/15 11:58:21;;;;;;;;;;;27.90;28.00;;;;;;5104087;27;19912;-54
2022/06/15 12:01:08;;;;;;;;;;;27.70;25.90;;;;;;5124184;27;20401;-53
2022/06/15 12:03:54;;;;;;;;;;;27.60;28.50;;;;;;5124791;27;19911;-54
2022/06/15 12:06:37;;;;;;;;;;;27.70;28.00;;;;;;5123832;27;20331;-54
2022/06/15 12:09:25;;;;;;;;;;;27.70;30.30;;;;;;5144982;27;19918;-53
2022/06/15 12:15:13;;;;;;;;;;;27.70;27.50;;;;;;5123834;27;19916;-54
2022/06/15 12:17:59;;;;;;;;;;;27.60;29.30;;;;;;5124019;27;19919;-53
2022/06/15 12:20:46;;;;;;;;;;;27.70;29.10;;;;;;5124332;27;19912;-53
2022/06/15 12:23:31;;;;;;;;;;;28.00;28.90;;;;;;5124583;27;19911;-54
2022/06/15 12:26:18;;;;;;;;;;;28.30;29.00;;;;;;5123972;27;20351;-54
2022/06/15 12:29:03;;;;;;;;;;;28.40;29.00;;;;;;5080254;28;19913;-54
2022/06/15 12:31:48;;;;;;;;;;;28.60;27.80;;;;;;5124590;27;19915;-54
2022/06/15 12:34:35;;;;;;;;;;;28.60;31.10;;;;;;5124642;27;20327;-54
2022/06/15 12:37:20;;;;;;;;;;;28.60;29.90;;;;;;5122726;27;19916;-54
2022/06/15 12:40:10;;;;;;;;;;;28.70;26.80;;;;;;5113987;27;19912;-54
2022/06/15 12:42:54;;;;;;;;;;;28.60;28.60;;;;;;5125372;27;19913;-54
2022/06/15 12:45:35;;;;;;;;;;;28.50;28.30;;;;;;5124507;27;19915;-55
2022/06/15 12:48:22;;;;;;;;;;;28.70;28.00;;;;;;5103807;27;19912;-55
2022/06/15 12:51:07;;;;;;;;;;;28.90;27.10;;;;;;5123983;27;20122;-55
2022/06/15 12:53:52;;;;;;;;;;;29.00;28.80;;;;;;5124438;27;20392;-54
2022/06/15 12:56:38;;;;;;;;;;;29.20;28.50;;;;;;5123774;27;19953;-56
2022/06/15 12:59:26;;;;;;;;;;;29.30;26.60;;;;;;5120167;27;19916;-55
2022/06/15 13:02:08;;;;;;;;;;;29.20;27.50;;;;;;5124218;27;19957;-54
2022/06/15 13:04:55;;;;;;;;;;;29.10;27.80;;;;;;5145399;27;19911;-54
2022/06/15 13:07:36;;;;;;;;;;;29.00;27.00;;;;;;5124086;27;19919;-56
2022/06/15 13:10:21;;;;;;;;;;;28.90;26.90;;;;;;5110928;27;19916;-54
2022/06/15 13:13:02;;;;;;;;;;;29.00;26.50;;;;;;5124437;27;20526;-56
2022/06/15 13:15:55;;;;;;;;;;;29.00;26.40;;;;;;5123990;27;19916;-54
2022/06/15 13:18:40;;;;;;;;;;;29.00;25.30;;;;;;5123756;27;20320;-55
2022/06/15 13:21:20;;;;;;;;;;;29.00;26.50;;;;;;5124327;27;19911;-55
2022/06/15 13:24:03;;;;;;;;;;;29.10;28.20;;;;;;5124469;27;19978;-55
2022/06/15 13:26:59;;;;;;;;;;;29.20;27.10;;;;;;5123940;27;19967;-55
2022/06/15 13:29:49;;;;;;;;;;;29.40;27.50;;;;;;5114722;27;19917;-55
2022/06/15 13:32:49;;;;;;;;;;;29.70;25.70;;;;;;5104124;27;19918;-54
2022/06/15 13:35:31;;;;;;;;;;;29.80;24.80;;;;;;5123509;27;19922;-55
2022/06/15 13:38:27;;;;;;;;;;;29.90;25.90;;;;;;5103704;27;19954;-54
2022/06/15 13:41:10;;;;;;;;;;;30.10;24.30;;;;;;5083159;28;19916;-54
2022/06/15 13:44:10;;;;;;;;;;;30.10;24.40;;;;;;5104226;27;20336;-55
2022/06/15 13:46:56;;;;;;;;;;;30.20;24.90;;;;;;5123835;27;19946;-56
2022/06/15 13:49:55;;;;;;;;;;;30.30;24.70;;;;;;5123302;27;20262;-55
2022/06/15 13:52:35;;;;;;;;;;;30.30;25.20;;;;;;5103233;27;20274;-56
2022/06/15 13:55:32;;;;;;;;;;;30.20;25.50;;;;;;5120306;27;20245;-55
2022/06/15 13:58:20;;;;;;;;;;;30.10;23.20;;;;;;5103003;27;19966;-55
2022/06/15 14:01:06;;;;;;;;;;;29.90;25.10;;;;;;5104650;27;19912;-55
2022/06/15 14:04:03;;;;;;;;;;;29.80;23.20;;;;;;5103865;27;20239;-56
2022/06/15 14:06:48;;;;;;;;;;;29.70;23.20;;;;;;5102934;27;19926;-55
2022/06/15 14:09:38;;;;;;;;;;;29.70;23.40;;;;;;5093572;27;19913;-56
2022/06/15 14:12:32;;;;;;;;;;;29.90;23.50;;;;;;5142311;27;20395;-54
2022/06/15 14:15:31;;;;;;;;;;;30.10;25.70;;;;;;5122565;27;19916;-55
2022/06/15 14:18:37;;;;;;;;;;;30.20;26.20;;;;;;5123136;27;19928;-55
2022/06/15 14:21:21;;;;;;;;;;;30.30;23.90;;;;;;5102167;27;19949;-54
2022/06/15 14:24:17;;;;;;;;;;;30.40;24.60;;;;;;5102397;27;20321;-56
2022/06/15 14:26:57;;;;;;;;;;;30.50;23.10;;;;;;5081241;28;20321;-55
2022/06/15 14:29:41;;;;;;;;;;;30.40;22.50;;;;;;5073232;28;19917;-55
2022/06/15 14:32:24;;;;;;;;;;;30.30;22.00;;;;;;5122595;27;20161;-57
2022/06/15 14:35:11;;;;;;;;;;;30.40;24.60;;;;;;5102100;27;20313;-55
2022/06/15 14:37:51;;;;;;;;;;;30.50;24.00;;;;;;5123165;27;19912;-56
2022/06/15 14:40:34;;;;;;;;;;;30.60;24.10;;;;;;5107146;27;20398;-56
2022/06/15 14:43:17;;;;;;;;;;;30.70;23.90;;;;;;5124081;27;19912;-56
2022/06/15 14:45:57;;;;;;;;;;;30.60;22.50;;;;;;5101928;27;19912;-55
2022/06/15 14:48:38;;;;;;;;;;;30.50;23.10;;;;;;5102679;27;19963;-55
2022/06/15 14:51:21;;;;;;;;;;;30.60;23.80;;;;;;5082526;28;19917;-55
2022/06/15 14:54:06;;;;;;;;;;;30.60;22.70;;;;;;5103185;27;19985;-53
2022/06/15 14:56:57;;;;;;;;;;;30.60;22.90;;;;;;5084960;27;19912;-55
2022/06/15 14:59:46;;;;;;;;;;;30.40;22.10;;;;;;5103142;27;19927;-55
2022/06/15 15:02:39;;;;;;;;;;;30.60;25.00;;;;;;5123637;27;19912;-55
2022/06/15 15:05:24;;;;;;;;;;;30.90;22.70;;;;;;5102095;27;19916;-56
2022/06/15 15:08:18;;;;;;;;;;;30.90;22.90;;;;;;5102434;27;19920;-56
2022/06/15 15:11:00;;;;;;;;;;;31.10;23.70;;;;;;5101983;27;20308;-54
2022/06/15 15:13:44;;;;;;;;;;;31.10;23.60;;;;;;5124066;27;19927;-55
2022/06/15 15:16:29;;;;;;;;;;;31.10;22.10;;;;;;5122680;27;20395;-55
2022/06/15 15:19:11;;;;;;;;;;;31.10;22.30;;;;;;5101618;27;19930;-54
2022/06/15 15:21:58;;;;;;;;;;;31.20;21.20;;;;;;5122848;27;19916;-56
2022/06/15 15:24:39;;;;;;;;;;;32.30;21.50;;;;;;5116871;27;19912;-55
2022/06/15 15:34:07;;;;;;;;;;;33.80;22.50;;;;;;5102001;27;20339;-55
2022/06/15 15:39:45;;;;;;;;;;;36.80;16.30;;;;;;5092572;27;19923;-55
2022/06/15 15:42:28;;;;;;;;;;;37.90;14.70;;;;;;5122435;27;19916;-55
2022/06/15 15:45:11;;;;;;;;;;;38.50;14.90;;;;;;5101960;27;19926;-56
2022/06/15 15:47:51;;;;;;;;;;;39.00;15.80;;;;;;5103207;27;20312;-54
2022/06/15 15:50:34;;;;;;;;;;;39.30;15.30;;;;;;5087974;27;20465;-54
2022/06/15 15:53:14;;;;;;;;;;;39.50;16.00;;;;;;5123674;27;19925;-55
2022/06/15 15:55:54;;;;;;;;;;;38.90;14.90;;;;;;5122307;27;19930;-54
2022/06/15 15:58:33;;;;;;;;;;;38.70;15.50;;;;;;5123361;27;19912;-54
2022/06/15 16:01:14;;;;;;;;;;;39.20;14.30;;;;;;5110905;27;19924;-56
2022/06/15 16:03:55;;;;;;;;;;;39.60;15.60;;;;;;5149239;27;19912;-55
2022/06/15 16:06:36;;;;;;;;;;;39.90;14.20;;;;;;5101180;27;19924;-56
2022/06/15 16:09:16;;;;;;;;;;;39.70;14.30;;;;;;5120372;27;20336;-56
2022/06/15 16:11:56;;;;;;;;;;;39.80;13.60;;;;;;5122066;27;20408;-54
2022/06/15 16:14:36;;;;;;;;;;;39.60;12.80;;;;;;5122584;27;20305;-55
2022/06/15 16:17:16;;;;;;;;;;;39.40;12.80;;;;;;5101088;27;19912;-56
2022/06/15 16:19:58;;;;;;;;;;;39.60;13.60;;;;;;5082609;27;20402;-54
2022/06/15 16:22:39;;;;;;;;;;;39.60;14.50;;;;;;5121790;27;20293;-54
2022/06/15 16:25:21;;;;;;;;;;;39.70;13.30;;;;;;5100959;27;19913;-55
2022/06/15 16:28:02;;;;;;;;;;;40.00;12.40;;;;;;5100981;27;19912;-54
2022/06/15 16:30:43;;;;;;;;;;;40.50;13.60;;;;;;5107315;27;19922;-54
2022/06/15 16:33:22;;;;;;;;;;;40.90;13.10;;;;;;5104559;27;19946;-55
2022/06/15 16:36:02;;;;;;;;;;;41.00;12.40;;;;;;5101146;27;19919;-55
2022/06/15 16:38:42;;;;;;;;;;;41.10;13.00;;;;;;5103480;27;19912;-56
2022/06/15 16:41:23;;;;;;;;;;;40.90;11.80;;;;;;5103845;27;19926;-54
2022/06/15 16:44:04;;;;;;;;;;;41.00;12.10;;;;;;5124113;27;19918;-54
2022/06/15 16:46:43;;;;;;;;;;;41.10;11.80;;;;;;5123448;27;19926;-56
2022/06/15 16:49:23;;;;;;;;;;;41.00;11.60;;;;;;5119390;27;19934;-54
2022/06/15 16:52:05;;;;;;;;;;;41.30;11.50;;;;;;5103541;27;19913;-55